This is the latest recevied weather packets stored in our database for station/object VK5ALG-13. If no packets are shown the sender has not sent any weather packets the latest 10 day(s).
| Time | Temp. | Humidity | Pressure | Rain* | Wind** | Luminosity | Snow |
|---|---|---|---|---|---|---|---|
| 1777883430 | 15.56° C | 70% | 1017.4 hPa | 0 mm | - | - | - |
| 1777882827 | 16.11° C | 69% | 1017.3 hPa | 0 mm | - | - | - |
| 1777881618 | 16.11° C | 69% | 1017.1 hPa | 0 mm | - | - | - |
| 1777879223 | 17.22° C | 66% | 1016.8 hPa | 0 mm | - | - | - |
| 1777873831 | 20° C | 57% | 1015.9 hPa | 0 mm | - | - | - |
| 1777873237 | 20.56° C | 54% | 1015.8 hPa | 0 mm | - | - | - |
| 1777870853 | 20° C | 55% | 1015.4 hPa | 0 mm | - | - | - |
| 1777869626 | 20.56° C | 54% | 1015.2 hPa | 0 mm | - | - | - |
| 1777864818 | 20° C | 58% | 1015.1 hPa | 0 mm | - | - | - |
| 1777861217 | 20° C | 59% | 1015.4 hPa | 0 mm | - | - | - |
| 1777860633 | 18.89° C | 67% | 1015.5 hPa | 0 mm | - | - | - |
| 1777859426 | 18.33° C | 66% | 1015.5 hPa | 0 mm | - | - | - |
| 1777857636 | 18.33° C | 66% | 1015.2 hPa | 0 mm | - | - | - |
| 1777853429 | 16.67° C | 77% | 1014.5 hPa | 0 mm | - | - | - |
| 1777851035 | 16.11° C | 82% | 1014.2 hPa | 0 mm | - | - | - |
| 1777843853 | 14.44° C | 88% | 1012.5 hPa | 0.25 mm | - | - | - |
| 1777842625 | 14.44° C | 88% | 1012.2 hPa | 0.25 mm | - | - | - |
| 1777839628 | 14.44° C | 87% | 1011.7 hPa | 0 mm | - | - | - |
| 1777838421 | 14.44° C | 89% | 1011.7 hPa | 0.51 mm | - | - | - |
| 1777836631 | 13.89° C | 89% | 1011.6 hPa | 0.51 mm | - | - | - |
| 1777831219 | 13.89° C | 87% | 1011.4 hPa | 0 mm | - | - | - |
| 1777830032 | 13.89° C | 87% | 1011.5 hPa | 0 mm | - | - | - |
| 1777825830 | 13.33° C | 92% | 1011.9 hPa | 2.29 mm | - | - | - |
| 1777822226 | 13.33° C | 91% | 1011.8 hPa | 2.03 mm | - | - | - |
| 1777821039 | 13.33° C | 89% | 1012.2 hPa | 1.27 mm | - | - | - |
* Rain latest hour (hover to see other rain measurements)
** Current wind speed in m/s (hover to see current wind gust speed)